createdAt,value
2022-09-11T00:00:50.636Z,10.57
2022-09-11T00:03:37.837Z,11.30
2022-09-11T00:06:30.589Z,10.55
2022-09-11T00:09:17.971Z,10.50
2022-09-11T00:12:07.196Z,10.68
2022-09-11T00:14:54.422Z,11.20
2022-09-11T00:17:41.655Z,11.13
2022-09-11T00:20:29.051Z,11.07
2022-09-11T00:23:18.197Z,12.00
2022-09-11T00:26:06.066Z,11.80
2022-09-11T00:28:53.947Z,11.57
2022-09-11T00:31:41.540Z,12.90
2022-09-11T00:34:28.923Z,11.90
2022-09-11T00:37:16.165Z,11.93
2022-09-11T00:40:03.999Z,12.23
2022-09-11T00:42:55.513Z,13.20
2022-09-11T00:45:47.402Z,12.80
2022-09-11T00:48:36.757Z,12.27
2022-09-11T00:51:28.157Z,12.45
2022-09-11T00:54:20.994Z,13.77
2022-09-11T00:57:10.054Z,15.02
2022-09-11T00:59:59.391Z,14.43
2022-09-11T01:02:49.079Z,14.90
2022-09-11T01:05:41.004Z,15.98
2022-09-11T01:08:28.380Z,16.83
2022-09-11T01:11:36.137Z,16.98
2022-09-11T01:14:38.317Z,16.35
2022-09-11T01:17:47.193Z,15.77
2022-09-11T01:20:50.589Z,16.30
2022-09-11T01:24:02.314Z,16.98
2022-09-11T01:27:01.867Z,16.85
2022-09-11T01:29:57.932Z,17.52
2022-09-11T01:33:03.075Z,17.10
2022-09-11T01:36:02.113Z,17.40
2022-09-11T01:38:56.499Z,16.83
2022-09-11T01:41:57.037Z,17.35
2022-09-11T01:44:52.993Z,17.65
2022-09-11T01:47:42.590Z,17.35
2022-09-11T01:50:32.656Z,17.30
2022-09-11T01:53:23.671Z,16.52
2022-09-11T01:56:16.400Z,16.40
2022-09-11T01:59:10.006Z,16.33
2022-09-11T02:02:10.986Z,16.25
2022-09-11T02:05:22.937Z,18.23
2022-09-11T02:08:26.930Z,18.27
2022-09-11T02:11:16.774Z,18.73
2022-09-11T02:14:18.018Z,18.50
2022-09-11T02:17:17.232Z,18.80
2022-09-11T02:20:05.537Z,19.27
2022-09-11T02:22:53.132Z,21.75
2022-09-11T02:25:41.002Z,22.02
2022-09-11T02:28:29.136Z,22.30
2022-09-11T02:31:18.844Z,23.27
2022-09-11T02:34:06.243Z,23.50
2022-09-11T02:36:54.727Z,23.20
2022-09-11T02:40:07.377Z,21.95
2022-09-11T02:43:03.647Z,22.33
2022-09-11T02:46:27.445Z,23.92
2022-09-11T02:49:29.529Z,24.73
2022-09-11T02:52:30.534Z,23.52
2022-09-11T02:55:56.047Z,25.90
2022-09-11T02:58:51.013Z,26.25
2022-09-11T03:01:55.861Z,27.65
2022-09-11T03:04:43.184Z,29.05
2022-09-11T03:07:30.998Z,29.02
2022-09-11T03:10:18.248Z,31.13
2022-09-11T03:13:05.468Z,30.40
2022-09-11T03:15:52.691Z,29.05
2022-09-11T03:18:40.097Z,31.52
2022-09-11T03:21:27.335Z,32.08
2022-09-11T03:24:15.950Z,32.70
2022-09-11T03:27:04.469Z,32.30
2022-09-11T03:29:51.666Z,32.53
2022-09-11T03:32:38.939Z,33.13
2022-09-11T03:35:27.244Z,33.40
2022-09-11T03:38:15.675Z,34.05
2022-09-11T03:41:03.358Z,34.63
2022-09-11T03:43:51.850Z,34.40
2022-09-11T03:46:39.516Z,35.00
2022-09-11T03:49:26.796Z,33.35
2022-09-11T03:52:14.363Z,35.30
2022-09-11T03:55:02.348Z,36.47
2022-09-11T03:57:49.629Z,35.75
2022-09-11T04:00:40.106Z,37.50
2022-09-11T04:03:27.612Z,36.40
2022-09-11T04:06:14.833Z,37.10
2022-09-11T04:09:02.473Z,36.33
2022-09-11T04:11:49.756Z,38.03
2022-09-11T04:14:36.961Z,38.05
2022-09-11T04:17:24.407Z,37.53
2022-09-11T04:20:11.649Z,36.97
2022-09-11T04:22:58.936Z,37.20
2022-09-11T04:25:46.144Z,36.45
2022-09-11T04:28:33.359Z,35.38
2022-09-11T04:31:21.452Z,37.13
2022-09-11T04:34:09.463Z,33.92
2022-09-11T04:36:56.719Z,36.22
2022-09-11T04:39:44.247Z,35.30
2022-09-11T04:42:31.499Z,34.22
2022-09-11T04:45:18.886Z,33.78
2022-09-11T04:48:06.108Z,34.50
2022-09-11T04:51:08.321Z,34.65
2022-09-11T04:54:00.024Z,35.30
2022-09-11T04:56:47.233Z,34.45
2022-09-11T04:59:35.657Z,35.58
2022-09-11T05:02:22.990Z,33.67
2022-09-11T05:05:10.240Z,34.80
2022-09-11T05:07:57.472Z,34.72
2022-09-11T05:10:45.235Z,35.35
2022-09-11T05:13:36.398Z,32.15
2022-09-11T05:16:24.284Z,32.33
2022-09-11T05:19:11.509Z,34.35
2022-09-11T05:21:58.767Z,31.67
2022-09-11T05:24:46.018Z,34.42
2022-09-11T05:27:33.215Z,32.72
2022-09-11T05:30:20.428Z,35.47
2022-09-11T05:33:07.627Z,34.17
2022-09-11T05:36:02.090Z,33.03
2022-09-11T05:38:49.273Z,34.28
2022-09-11T05:41:36.452Z,33.63
2022-09-11T05:44:23.691Z,34.25
2022-09-11T05:47:10.964Z,35.80
2022-09-11T05:49:58.161Z,35.72
2022-09-11T05:52:45.369Z,34.92
2022-09-11T05:55:35.444Z,37.65
2022-09-11T05:58:22.851Z,38.92
2022-09-11T06:01:18.619Z,37.75
2022-09-11T06:04:09.973Z,37.58
2022-09-11T06:06:57.185Z,36.13
2022-09-11T06:09:44.444Z,36.45
2022-09-11T06:12:31.641Z,35.45
2022-09-11T06:15:42.951Z,35.22
2022-09-11T06:18:26.372Z,36.70
2022-09-11T06:21:19.257Z,36.72
2022-09-11T06:24:06.695Z,38.63
2022-09-11T06:26:53.929Z,39.40
2022-09-11T06:29:41.989Z,40.03
2022-09-11T06:32:29.214Z,39.30
2022-09-11T06:35:16.416Z,39.30
2022-09-11T06:38:03.669Z,39.45
2022-09-11T06:40:51.433Z,40.83
2022-09-11T06:43:38.721Z,42.30
2022-09-11T06:46:26.108Z,43.97
2022-09-11T06:49:13.331Z,44.90
2022-09-11T06:52:00.536Z,42.17
2022-09-11T06:54:47.753Z,39.05
2022-09-11T06:57:37.750Z,38.47
2022-09-11T07:00:28.843Z,39.05
2022-09-11T07:03:16.046Z,35.35
2022-09-11T07:06:03.454Z,37.95
2022-09-11T07:09:02.302Z,35.85
2022-09-11T07:11:49.525Z,35.40
2022-09-11T07:14:41.213Z,36.67
2022-09-11T07:17:28.452Z,35.42
2022-09-11T07:20:17.528Z,36.33
2022-09-11T07:23:04.777Z,34.38
2022-09-11T07:25:53.343Z,36.22
2022-09-11T07:28:40.827Z,35.83
2022-09-11T07:31:30.955Z,34.47
2022-09-11T07:34:18.188Z,35.08
2022-09-11T07:37:05.416Z,36.08
2022-09-11T07:39:52.667Z,36.45
2022-09-11T07:42:40.985Z,36.05
2022-09-11T07:45:28.323Z,33.58
2022-09-11T07:48:15.851Z,32.53
2022-09-11T07:51:05.548Z,32.55
2022-09-11T07:53:54.398Z,31.00
2022-09-11T07:56:41.646Z,30.30
2022-09-11T07:59:28.969Z,29.02
2022-09-11T08:02:18.014Z,30.17
2022-09-11T08:05:06.565Z,30.88
2022-09-11T08:07:53.734Z,28.90
2022-09-11T08:10:41.091Z,28.70
2022-09-11T08:13:28.403Z,29.45
2022-09-11T08:16:16.531Z,28.45
2022-09-11T08:19:05.091Z,30.17
2022-09-11T08:21:52.850Z,27.98
2022-09-11T08:24:42.949Z,28.67
2022-09-11T08:27:31.016Z,27.92
2022-09-11T08:30:18.220Z,27.15
2022-09-11T08:33:06.306Z,27.38
2022-09-11T08:35:53.769Z,26.10
2022-09-11T08:38:41.832Z,28.27
2022-09-11T08:41:41.071Z,27.38
2022-09-11T08:44:39.169Z,27.08
2022-09-11T08:47:31.522Z,27.98
2022-09-11T08:50:36.526Z,28.75
2022-09-11T08:53:25.558Z,27.50
2022-09-11T08:56:19.195Z,27.40
2022-09-11T08:59:23.057Z,27.42
2022-09-11T09:02:27.727Z,27.35
2022-09-11T09:05:20.380Z,27.42
2022-09-11T09:08:07.626Z,25.80
2022-09-11T09:11:14.248Z,27.85
2022-09-11T09:14:05.746Z,29.75
2022-09-11T09:17:01.787Z,30.52
2022-09-11T09:20:01.448Z,28.85
2022-09-11T09:23:02.909Z,29.05
2022-09-11T09:25:53.058Z,27.98
2022-09-11T09:28:46.871Z,27.75
2022-09-11T09:31:38.560Z,29.38
2022-09-11T09:34:31.020Z,29.38
2022-09-11T09:37:21.853Z,30.60
2022-09-11T09:40:10.752Z,30.77
2022-09-11T09:43:13.825Z,30.08
2022-09-11T09:46:15.925Z,28.30
2022-09-11T09:49:03.170Z,28.80
2022-09-11T09:51:51.692Z,28.02
2022-09-11T09:54:39.430Z,25.65
2022-09-11T09:57:37.250Z,25.20
2022-09-11T10:00:24.492Z,24.35
2022-09-11T10:03:23.331Z,24.45
2022-09-11T10:06:10.643Z,22.70
2022-09-11T10:09:01.414Z,23.17
2022-09-11T10:12:02.353Z,25.80
2022-09-11T10:15:01.929Z,26.25
2022-09-11T10:17:50.333Z,25.02
2022-09-11T10:20:38.219Z,26.10
2022-09-11T10:23:27.455Z,24.92
2022-09-11T10:26:18.258Z,25.35
2022-09-11T10:29:15.651Z,24.45
2022-09-11T10:32:03.873Z,24.90
2022-09-11T10:34:52.949Z,24.02
2022-09-11T10:37:40.217Z,23.35
2022-09-11T10:40:27.641Z,22.77
2022-09-11T10:43:31.708Z,21.38
2022-09-11T10:46:18.969Z,21.83
2022-09-11T10:49:06.098Z,21.30
2022-09-11T10:52:08.468Z,21.63
2022-09-11T10:55:15.122Z,20.80
2022-09-11T10:58:12.401Z,19.88
2022-09-11T11:00:59.661Z,20.40
2022-09-11T11:03:46.959Z,20.40
2022-09-11T11:06:49.716Z,20.33
2022-09-11T11:10:02.781Z,19.92
2022-09-11T11:13:38.846Z,20.45
2022-09-11T11:16:50.331Z,17.98
2022-09-11T11:19:56.848Z,18.35
2022-09-11T11:23:03.556Z,18.25
2022-09-11T11:25:57.789Z,16.65
2022-09-11T11:29:14.333Z,17.35
2022-09-11T11:32:08.422Z,16.63
2022-09-11T11:35:26.423Z,15.95
2022-09-11T11:38:20.214Z,16.77
2022-09-11T11:41:15.086Z,16.40
2022-09-11T11:44:06.271Z,15.65
2022-09-11T11:46:59.293Z,15.07
2022-09-11T11:50:15.173Z,16.23
2022-09-11T11:55:27.492Z,17.08
2022-09-11T11:58:04.416Z,16.48
2022-09-11T12:00:39.142Z,15.45
2022-09-11T12:03:18.114Z,18.75
2022-09-11T12:05:45.080Z,16.40
2022-09-11T12:08:16.566Z,15.90
2022-09-11T12:10:56.245Z,14.25
2022-09-11T12:13:30.797Z,14.70
2022-09-11T12:16:02.543Z,15.80
2022-09-11T12:18:29.629Z,14.98
2022-09-11T12:21:24.512Z,14.60
2022-09-11T12:23:56.989Z,13.52
2022-09-11T12:26:25.751Z,12.90
2022-09-11T12:29:18.837Z,12.75
2022-09-11T12:31:51.545Z,11.77
2022-09-11T12:34:23.205Z,12.50
2022-09-11T12:36:57.636Z,13.35
2022-09-11T12:39:34.674Z,12.68
2022-09-11T12:42:30.432Z,13.23
2022-09-11T12:44:59.635Z,14.73
2022-09-11T12:47:40.113Z,13.00
2022-09-11T12:50:13.146Z,11.85
2022-09-11T12:52:47.668Z,12.52
2022-09-11T12:55:43.297Z,14.15
2022-09-11T12:58:18.866Z,13.20
2022-09-11T13:00:49.548Z,12.85
2022-09-11T13:03:23.357Z,12.65
2022-09-11T13:06:11.757Z,11.93
2022-09-11T13:09:01.784Z,12.35
2022-09-11T13:11:46.393Z,12.30
2022-09-11T13:14:28.216Z,10.77
2022-09-11T13:16:56.928Z,10.90
2022-09-11T13:19:35.742Z,11.37
2022-09-11T13:22:20.468Z,11.32
2022-09-11T13:24:48.308Z,12.60
2022-09-11T13:27:26.483Z,11.82
2022-09-11T13:29:56.289Z,12.30
2022-09-11T13:32:23.704Z,10.88
2022-09-11T13:35:01.310Z,12.20
2022-09-11T13:37:41.267Z,10.48
2022-09-11T13:40:19.840Z,12.63
2022-09-11T13:42:48.783Z,12.63
2022-09-11T13:45:18.587Z,12.45
2022-09-11T13:47:45.866Z,11.00
2022-09-11T13:50:16.114Z,10.68
2022-09-11T13:52:45.613Z,11.73
2022-09-11T13:55:20.683Z,10.65
2022-09-11T13:58:02.086Z,10.35
2022-09-11T14:00:41.080Z,9.00
2022-09-11T14:03:31.755Z,9.68
2022-09-11T14:06:15.865Z,10.63
2022-09-11T14:08:49.933Z,10.50
2022-09-11T14:11:33.354Z,8.45
2022-09-11T14:14:13.963Z,8.68
2022-09-11T14:16:52.689Z,8.77
2022-09-11T14:19:22.835Z,7.45
2022-09-11T14:21:51.250Z,7.72
2022-09-11T14:24:32.963Z,7.40
2022-09-11T14:27:01.903Z,6.47
2022-09-11T14:29:31.445Z,8.23
2022-09-11T14:34:43.618Z,5.65
2022-09-11T14:37:16.595Z,5.90
2022-09-11T14:39:50.012Z,5.75
2022-09-11T14:42:21.063Z,5.70
2022-09-11T14:44:48.175Z,5.90
2022-09-11T14:47:19.856Z,5.97
2022-09-11T14:49:46.988Z,6.13
2022-09-11T14:52:16.519Z,5.72
2022-09-11T14:57:15.255Z,5.97
2022-09-11T14:59:45.658Z,5.93
2022-09-11T15:02:14.802Z,6.05
2022-09-11T15:04:41.929Z,5.82
2022-09-11T15:07:10.958Z,5.57
2022-09-11T15:09:38.171Z,5.50
2022-09-11T15:12:05.988Z,6.07
2022-09-11T15:14:55.078Z,5.25
2022-09-11T15:17:20.265Z,7.43
2022-09-11T15:19:49.614Z,7.18
2022-09-11T15:22:17.445Z,7.57
2022-09-11T15:24:44.345Z,7.20
2022-09-11T15:27:11.276Z,6.57
2022-09-11T15:29:39.684Z,7.70
2022-09-11T15:32:07.515Z,7.40
2022-09-11T15:34:34.649Z,7.75
2022-09-11T15:37:02.490Z,6.75
2022-09-11T15:39:29.473Z,6.93
2022-09-11T15:41:56.486Z,6.35
2022-09-11T15:44:25.959Z,7.10
2022-09-11T15:46:55.117Z,7.47
2022-09-11T15:49:24.065Z,6.47
2022-09-11T15:51:53.988Z,6.82
2022-09-11T15:54:23.115Z,6.50
2022-09-11T15:56:51.408Z,5.97
2022-09-11T15:59:18.484Z,5.97
2022-09-11T16:01:45.649Z,6.63
2022-09-11T16:04:15.234Z,6.18
2022-09-11T16:09:16.408Z,5.75
2022-09-11T16:11:43.863Z,6.88
2022-09-11T16:14:17.699Z,8.43
2022-09-11T16:16:47.029Z,7.22
2022-09-11T16:19:15.578Z,7.60
2022-09-11T16:21:43.037Z,7.77
2022-09-11T16:24:11.506Z,8.73
2022-09-11T16:26:38.623Z,7.85
2022-09-11T16:29:11.507Z,7.28
2022-09-11T16:31:39.449Z,6.15
2022-09-11T16:34:07.108Z,7.25
2022-09-11T16:36:41.722Z,6.93
2022-09-11T16:39:11.839Z,8.18
2022-09-11T16:41:39.192Z,7.55
2022-09-11T16:44:08.467Z,6.57
2022-09-11T16:46:37.068Z,6.60
2022-09-11T16:49:05.786Z,7.17
2022-09-11T16:51:34.032Z,7.13
2022-09-11T16:54:03.423Z,7.40
2022-09-11T16:56:30.886Z,7.28
2022-09-11T16:58:58.293Z,7.70
2022-09-11T17:01:27.295Z,8.15
2022-09-11T17:03:57.130Z,8.35
2022-09-11T17:06:29.870Z,8.63
2022-09-11T17:08:59.657Z,7.40
2022-09-11T17:11:28.851Z,7.45
2022-09-11T17:13:55.852Z,8.02
2022-09-11T17:16:26.287Z,7.88
2022-09-11T17:18:56.575Z,7.70
2022-09-11T17:21:24.955Z,7.50
2022-09-11T17:23:56.186Z,7.03
2022-09-11T17:26:32.541Z,6.78
2022-09-11T17:29:03.617Z,6.60
2022-09-11T17:31:31.520Z,6.40
2022-09-11T17:33:58.644Z,6.70
2022-09-11T17:36:25.577Z,6.18
2022-09-11T17:38:52.619Z,6.00
2022-09-11T17:41:20.873Z,6.38
2022-09-11T17:43:48.990Z,5.53
2022-09-11T17:46:18.684Z,6.68
2022-09-11T17:48:46.496Z,6.32
2022-09-11T17:51:20.005Z,6.30
2022-09-11T17:53:52.270Z,6.57
2022-09-11T17:56:30.617Z,6.88
2022-09-11T17:58:59.652Z,6.63
2022-09-11T18:01:28.711Z,7.65
2022-09-11T18:03:58.137Z,7.45
2022-09-11T18:06:36.529Z,7.35
2022-09-11T18:09:21.630Z,7.68
2022-09-11T18:11:50.901Z,7.93
2022-09-11T18:14:18.713Z,7.45
2022-09-11T18:16:47.268Z,7.28
2022-09-11T18:19:16.039Z,7.53
2022-09-11T18:21:45.605Z,7.30
2022-09-11T18:24:19.861Z,7.82
2022-09-11T18:26:50.085Z,7.32
2022-09-11T18:29:20.131Z,8.65
2022-09-11T18:31:50.165Z,8.63
2022-09-11T18:34:20.253Z,8.85
2022-09-11T18:36:47.901Z,8.23
2022-09-11T18:39:17.654Z,8.75
2022-09-11T18:41:46.185Z,8.43
2022-09-11T18:44:19.617Z,8.43
2022-09-11T18:46:47.806Z,8.07
2022-09-11T18:49:15.668Z,8.23
2022-09-11T18:51:43.037Z,8.27
2022-09-11T18:54:14.742Z,9.25
2022-09-11T18:56:42.969Z,8.63
2022-09-11T18:59:11.105Z,9.10
2022-09-11T19:01:41.186Z,8.88
2022-09-11T19:04:10.723Z,9.27
2022-09-11T19:06:38.658Z,8.63
2022-09-11T19:09:10.001Z,9.35
2022-09-11T19:11:37.482Z,8.52
2022-09-11T19:14:06.939Z,9.10
2022-09-11T19:16:36.164Z,9.52
2022-09-11T19:19:03.593Z,10.25
2022-09-11T19:21:30.769Z,10.13
2022-09-11T19:24:00.611Z,9.60
2022-09-11T19:26:31.453Z,9.57
2022-09-11T19:29:00.323Z,10.20
2022-09-11T19:31:29.790Z,10.25
2022-09-11T19:34:00.709Z,9.70
2022-09-11T19:36:33.968Z,9.70
2022-09-11T19:39:01.762Z,10.30
2022-09-11T19:41:34.474Z,10.45
2022-09-11T19:44:03.414Z,10.15
2022-09-11T19:46:32.339Z,9.85
2022-09-11T19:49:06.274Z,9.60
2022-09-11T19:51:35.605Z,10.13
2022-09-11T19:54:03.881Z,9.95
2022-09-11T19:56:33.231Z,10.63
2022-09-11T19:59:00.825Z,9.95
2022-09-11T20:01:29.962Z,10.90
2022-09-11T20:03:58.222Z,11.55
2022-09-11T20:06:29.004Z,10.10
2022-09-11T20:09:19.757Z,10.88
2022-09-11T20:11:45.202Z,11.57
2022-09-11T20:14:30.926Z,11.40
2022-09-11T20:16:58.165Z,10.95
2022-09-11T20:19:25.162Z,10.98
2022-09-11T20:21:52.182Z,11.15
2022-09-11T20:24:19.707Z,12.10
2022-09-11T20:26:46.771Z,11.30
2022-09-11T20:29:15.489Z,11.57
2022-09-11T20:31:46.886Z,11.77
2022-09-11T20:34:16.565Z,12.05
2022-09-11T20:36:43.544Z,11.93
2022-09-11T20:39:28.470Z,11.25
2022-09-11T20:41:55.462Z,11.23
2022-09-11T20:44:22.721Z,11.10
2022-09-11T20:46:49.927Z,12.13
2022-09-11T20:49:16.919Z,12.57
2022-09-11T20:51:44.006Z,11.65
2022-09-11T20:54:10.972Z,12.50
2022-09-11T20:56:38.937Z,12.10
2022-09-11T20:59:06.220Z,13.05
2022-09-11T21:01:34.273Z,13.82
2022-09-11T21:04:03.069Z,14.20
2022-09-11T21:06:48.658Z,13.25
2022-09-11T21:09:15.937Z,14.20
2022-09-11T21:11:43.605Z,14.63
2022-09-11T21:14:15.464Z,14.55
2022-09-11T21:19:35.120Z,15.73
2022-09-11T21:22:02.094Z,15.60
2022-09-11T21:24:28.997Z,15.18
2022-09-11T21:27:14.558Z,15.30
2022-09-11T21:29:41.825Z,15.27
2022-09-11T21:32:08.790Z,17.30
2022-09-11T21:34:35.673Z,16.23
2022-09-11T21:37:22.213Z,14.93
2022-09-11T21:39:49.280Z,15.82
2022-09-11T21:42:16.254Z,16.50
2022-09-11T21:44:43.281Z,15.57
2022-09-11T21:47:10.621Z,16.25
2022-09-11T21:49:38.677Z,16.50
2022-09-11T21:52:05.674Z,15.77
2022-09-11T21:54:32.563Z,15.32
2022-09-11T21:56:59.525Z,16.80
2022-09-11T21:59:26.560Z,16.23
2022-09-11T22:02:12.016Z,16.02
2022-09-11T22:04:39.061Z,16.65
2022-09-11T22:07:06.472Z,16.38
2022-09-11T22:09:33.590Z,16.42
2022-09-11T22:12:00.744Z,16.35
2022-09-11T22:14:28.603Z,15.20
2022-09-11T22:16:55.580Z,16.33
2022-09-11T22:19:22.549Z,16.10
2022-09-11T22:21:49.848Z,17.90
2022-09-11T22:24:17.405Z,16.35
2022-09-11T22:26:44.437Z,17.38
2022-09-11T22:29:29.741Z,16.98
2022-09-11T22:31:57.261Z,15.88
2022-09-11T22:34:24.801Z,17.08
2022-09-11T22:36:51.729Z,16.95
2022-09-11T22:39:37.390Z,17.60
2022-09-11T22:42:04.622Z,17.02
2022-09-11T22:44:31.600Z,17.10
2022-09-11T22:46:58.569Z,17.30
2022-09-11T22:49:25.501Z,18.85
2022-09-11T22:51:52.426Z,17.38
2022-09-11T22:54:19.516Z,17.48
2022-09-11T22:56:46.419Z,17.90
2022-09-11T22:59:13.344Z,18.23
2022-09-11T23:01:40.376Z,17.92
2022-09-11T23:04:07.405Z,17.63
2022-09-11T23:06:52.921Z,17.13
2022-09-11T23:09:37.155Z,17.92
2022-09-11T23:12:04.973Z,18.00
2022-09-11T23:14:32.616Z,17.95
2022-09-11T23:16:59.711Z,17.63
2022-09-11T23:19:28.212Z,17.70
2022-09-11T23:21:55.192Z,17.08
2022-09-11T23:24:22.085Z,18.02
2022-09-11T23:26:49.004Z,17.95
2022-09-11T23:29:15.910Z,19.20
2022-09-11T23:31:44.167Z,17.67
2022-09-11T23:34:29.654Z,17.48
2022-09-11T23:36:56.646Z,20.30
2022-09-11T23:39:23.589Z,19.20
2022-09-11T23:41:50.491Z,18.80
2022-09-11T23:44:17.888Z,20.13
2022-09-11T23:46:44.843Z,21.75
2022-09-11T23:49:12.636Z,18.40
2022-09-11T23:51:39.637Z,20.35
2022-09-11T23:54:07.025Z,18.98
2022-09-11T23:56:33.929Z,19.63
2022-09-11T23:59:00.877Z,19.38
